createdAt,value
2019-04-25T00:01:01.180Z,10.77
2019-04-25T00:03:36.689Z,10.66
2019-04-25T00:06:08.806Z,10.58
2019-04-25T00:08:41.330Z,10.65
2019-04-25T00:11:15.054Z,10.49
2019-04-25T00:13:47.866Z,10.22
2019-04-25T00:16:22.032Z,10.36
2019-04-25T00:18:54.020Z,10.50
2019-04-25T00:21:55.530Z,10.49
2019-04-25T00:24:54.453Z,10.56
2019-04-25T00:27:26.622Z,10.55
2019-04-25T00:29:58.616Z,10.36
2019-04-25T00:32:31.576Z,10.38
2019-04-25T00:35:04.004Z,10.35
2019-04-25T00:37:37.120Z,10.42
2019-04-25T00:40:09.137Z,10.48
2019-04-25T00:42:42.789Z,10.42
2019-04-25T00:45:15.166Z,10.46
2019-04-25T00:47:47.751Z,10.46
2019-04-25T00:50:19.926Z,10.29
2019-04-25T00:52:53.241Z,10.12
2019-04-25T00:55:28.907Z,9.98
2019-04-25T00:58:11.479Z,10.08
2019-04-25T01:01:18.067Z,9.87
2019-04-25T01:03:50.293Z,9.81
2019-04-25T01:06:22.262Z,9.67
2019-04-25T01:08:55.823Z,9.60
2019-04-25T01:11:28.307Z,9.67
2019-04-25T01:14:00.256Z,9.61
2019-04-25T01:16:33.742Z,9.76
2019-04-25T01:19:06.281Z,9.77
2019-04-25T01:21:38.234Z,9.80
2019-04-25T01:24:10.590Z,9.93
2019-04-25T01:26:43.860Z,9.99
2019-04-25T01:29:15.940Z,10.02
2019-04-25T01:31:48.018Z,10.01
2019-04-25T01:34:27.558Z,9.97
2019-04-25T01:37:07.834Z,9.95
2019-04-25T01:39:49.009Z,9.75
2019-04-25T01:42:39.167Z,9.78
2019-04-25T01:45:11.263Z,9.87
2019-04-25T01:47:43.447Z,9.84
2019-04-25T01:50:17.128Z,9.82
2019-04-25T01:52:49.070Z,9.90
2019-04-25T01:55:21.050Z,9.82
2019-04-25T01:57:54.776Z,9.75
2019-04-25T02:00:33.596Z,9.66
2019-04-25T02:03:06.257Z,9.59
2019-04-25T02:05:38.252Z,9.46
2019-04-25T02:08:10.249Z,9.27
2019-04-25T02:10:44.111Z,9.22
2019-04-25T02:13:18.601Z,9.08
2019-04-25T02:15:51.527Z,8.96
2019-04-25T02:18:24.151Z,8.86
2019-04-25T02:20:58.892Z,8.72
2019-04-25T02:23:30.001Z,8.73
2019-04-25T02:26:13.930Z,8.75
2019-04-25T02:28:35.803Z,8.71
2019-04-25T02:31:08.861Z,8.78
2019-04-25T02:33:40.915Z,8.79
2019-04-25T02:36:15.047Z,8.80
2019-04-25T02:38:46.800Z,8.94
2019-04-25T02:41:18.725Z,9.10
2019-04-25T02:43:50.702Z,9.08
2019-04-25T02:46:56.168Z,9.14
2019-04-25T02:49:39.358Z,9.15
2019-04-25T02:52:20.803Z,9.09
2019-04-25T02:54:55.725Z,8.83
2019-04-25T02:57:26.623Z,8.78
2019-04-25T02:59:58.609Z,8.84
2019-04-25T03:02:30.568Z,8.67
2019-04-25T03:05:06.251Z,8.47
2019-04-25T03:07:36.446Z,8.56
2019-04-25T03:10:10.442Z,8.45
2019-04-25T03:12:44.532Z,8.21
2019-04-25T03:15:16.287Z,8.30
2019-04-25T03:17:48.235Z,8.37
2019-04-25T03:20:38.211Z,8.38
2019-04-25T03:23:28.664Z,8.52
2019-04-25T03:26:00.669Z,8.66
2019-04-25T03:28:33.928Z,8.63
2019-04-25T03:31:11.334Z,8.63
2019-04-25T03:33:39.963Z,8.65
2019-04-25T03:36:11.922Z,8.67
2019-04-25T03:38:44.206Z,8.69
2019-04-25T03:41:16.135Z,8.66
2019-04-25T03:43:48.093Z,8.74
2019-04-25T03:46:20.051Z,8.83
2019-04-25T03:48:52.030Z,8.79
2019-04-25T03:51:24.132Z,8.66
2019-04-25T03:53:56.134Z,8.73
2019-04-25T03:56:28.069Z,8.74
2019-04-25T03:59:00.036Z,8.85
2019-04-25T04:01:31.981Z,8.87
2019-04-25T04:04:05.728Z,8.79
2019-04-25T04:06:38.161Z,8.56
2019-04-25T04:09:10.233Z,8.45
2019-04-25T04:11:43.525Z,8.32
2019-04-25T04:14:15.800Z,8.28
2019-04-25T04:17:06.695Z,8.23
2019-04-25T04:19:47.472Z,8.19
2019-04-25T04:22:26.015Z,8.16
2019-04-25T04:24:59.337Z,8.13
2019-04-25T04:27:31.264Z,7.94
2019-04-25T04:30:04.239Z,7.92
2019-04-25T04:32:36.303Z,7.92
2019-04-25T04:35:08.662Z,7.99
2019-04-25T04:37:40.767Z,7.85
2019-04-25T04:40:14.726Z,7.87
2019-04-25T04:42:46.572Z,7.89
2019-04-25T04:45:18.522Z,7.93
2019-04-25T04:47:50.488Z,8.16
2019-04-25T04:50:23.252Z,8.24
2019-04-25T04:52:56.324Z,8.21
2019-04-25T04:55:28.355Z,8.11
2019-04-25T04:58:01.454Z,8.13
2019-04-25T05:00:33.952Z,8.26
2019-04-25T05:03:31.362Z,8.45
2019-04-25T05:06:27.076Z,8.58
2019-04-25T05:09:07.511Z,8.80
2019-04-25T05:11:39.486Z,8.80
2019-04-25T05:14:11.857Z,8.94
2019-04-25T05:16:43.905Z,9.02
2019-04-25T05:19:16.831Z,9.13
2019-04-25T05:21:49.063Z,9.46
2019-04-25T05:24:21.038Z,9.76
2019-04-25T05:26:53.978Z,10.22
2019-04-25T05:29:26.641Z,10.96
2019-04-25T05:31:58.779Z,11.61
2019-04-25T05:34:30.751Z,12.25
2019-04-25T05:37:03.857Z,12.65
2019-04-25T05:39:35.939Z,13.18
2019-04-25T05:42:24.789Z,13.72
2019-04-25T05:44:58.747Z,14.00
2019-04-25T05:47:30.743Z,14.48
2019-04-25T05:50:04.170Z,14.95
2019-04-25T05:52:36.327Z,15.34
2019-04-25T05:55:08.283Z,15.76
2019-04-25T05:57:47.325Z,16.00
2019-04-25T06:00:16.675Z,16.54
2019-04-25T06:02:50.065Z,16.98
2019-04-25T06:05:23.389Z,17.51
2019-04-25T06:07:55.948Z,17.89
2019-04-25T06:10:37.274Z,17.99
2019-04-25T06:13:28.834Z,18.25
2019-04-25T06:16:08.439Z,18.57
2019-04-25T06:18:52.914Z,19.00
2019-04-25T06:21:25.643Z,19.52
2019-04-25T06:24:18.302Z,19.49
2019-04-25T06:27:00.414Z,19.66
2019-04-25T06:29:34.697Z,19.86
2019-04-25T06:32:08.531Z,20.09
2019-04-25T06:34:40.334Z,20.13
2019-04-25T06:37:13.785Z,20.35
2019-04-25T06:39:47.087Z,20.23
2019-04-25T06:42:19.033Z,20.26
2019-04-25T06:45:03.504Z,20.76
2019-04-25T06:48:01.175Z,20.96
2019-04-25T06:50:34.098Z,21.33
2019-04-25T06:53:08.793Z,21.04
2019-04-25T06:55:40.800Z,21.01
2019-04-25T06:58:14.529Z,21.25
2019-04-25T07:00:58.178Z,21.66
2019-04-25T07:03:20.866Z,21.93
2019-04-25T07:05:53.589Z,22.25
2019-04-25T07:08:26.681Z,22.13
2019-04-25T07:10:58.985Z,22.59
2019-04-25T07:13:31.011Z,22.58
2019-04-25T07:16:04.610Z,22.55
2019-04-25T07:18:37.379Z,23.36
2019-04-25T07:21:09.481Z,24.07
2019-04-25T07:23:43.507Z,23.44
2019-04-25T07:26:30.410Z,23.01
2019-04-25T07:29:13.456Z,23.06
2019-04-25T07:31:57.061Z,23.54
2019-04-25T07:34:29.482Z,24.13
2019-04-25T07:37:01.495Z,24.82
2019-04-25T07:39:34.389Z,24.31
2019-04-25T07:42:07.269Z,24.24
2019-04-25T07:44:49.870Z,23.57
2019-04-25T07:47:13.707Z,24.00
2019-04-25T07:49:47.227Z,24.05
2019-04-25T07:52:19.203Z,23.88
2019-04-25T07:54:51.177Z,23.35
2019-04-25T07:57:23.852Z,23.44
2019-04-25T07:59:55.935Z,23.30
2019-04-25T08:02:28.525Z,23.40
2019-04-25T08:05:04.243Z,23.27
2019-04-25T08:07:36.358Z,23.09
2019-04-25T08:10:09.167Z,23.33
2019-04-25T08:12:41.764Z,23.24
2019-04-25T08:15:30.019Z,23.11
2019-04-25T08:18:04.197Z,23.22
2019-04-25T08:20:37.013Z,22.92
2019-04-25T08:23:09.141Z,23.26
2019-04-25T08:25:41.096Z,23.12
2019-04-25T08:28:13.815Z,23.04
2019-04-25T08:30:45.834Z,23.14
2019-04-25T08:33:17.811Z,23.09
2019-04-25T08:36:04.600Z,22.98
2019-04-25T08:38:23.945Z,22.92
2019-04-25T08:40:55.955Z,22.92
2019-04-25T08:43:27.945Z,23.00
2019-04-25T08:45:59.899Z,22.88
2019-04-25T08:48:35.830Z,22.80
2019-04-25T08:51:13.435Z,22.66
2019-04-25T08:53:55.807Z,22.70
2019-04-25T08:56:32.012Z,22.50
2019-04-25T08:59:34.155Z,22.28
2019-04-25T09:02:10.241Z,22.52
2019-04-25T09:05:01.850Z,22.71
2019-04-25T09:07:35.371Z,22.78
2019-04-25T09:10:08.216Z,22.83
2019-04-25T09:12:40.189Z,22.86
2019-04-25T09:15:14.105Z,22.80
2019-04-25T09:17:47.190Z,22.86
2019-04-25T09:20:19.694Z,22.93
2019-04-25T09:22:51.680Z,23.08
2019-04-25T09:25:23.944Z,23.28
2019-04-25T09:27:55.970Z,23.18
2019-04-25T09:30:27.932Z,22.85
2019-04-25T09:32:59.883Z,23.11
2019-04-25T09:35:33.524Z,23.23
2019-04-25T09:38:05.683Z,23.42
2019-04-25T09:40:37.708Z,23.54
2019-04-25T09:43:09.669Z,23.62
2019-04-25T09:45:55.005Z,23.98
2019-04-25T09:48:58.496Z,24.09
2019-04-25T09:51:36.108Z,24.22
2019-04-25T09:54:26.500Z,24.01
2019-04-25T09:57:06.520Z,24.08
2019-04-25T09:59:39.356Z,24.22
2019-04-25T10:02:12.271Z,24.13
2019-04-25T10:04:45.485Z,24.17
2019-04-25T10:07:18.096Z,24.33
2019-04-25T10:09:50.394Z,24.46
2019-04-25T10:12:23.113Z,24.51
2019-04-25T10:15:08.348Z,24.61
2019-04-25T10:17:41.134Z,24.58
2019-04-25T10:20:14.658Z,24.57
2019-04-25T10:22:46.692Z,24.33
2019-04-25T10:25:18.675Z,24.36
2019-04-25T10:27:50.691Z,24.59
2019-04-25T10:30:24.317Z,24.64
2019-04-25T10:32:56.509Z,24.71
2019-04-25T10:35:28.749Z,24.55
2019-04-25T10:38:00.737Z,24.50
2019-04-25T10:40:33.824Z,24.61
2019-04-25T10:43:06.490Z,24.80
2019-04-25T10:45:38.444Z,24.68
2019-04-25T10:48:10.382Z,24.75
2019-04-25T10:50:43.257Z,24.79
2019-04-25T10:53:15.846Z,24.85
2019-04-25T10:55:47.921Z,25.04
2019-04-25T10:58:19.936Z,25.08
2019-04-25T11:00:53.024Z,24.94
2019-04-25T11:03:45.198Z,24.97
2019-04-25T11:06:20.688Z,25.17
2019-04-25T11:08:55.425Z,25.23
2019-04-25T11:11:26.577Z,25.16
2019-04-25T11:13:58.781Z,25.33
2019-04-25T11:16:30.743Z,25.51
2019-04-25T11:19:02.741Z,25.63
2019-04-25T11:21:34.713Z,25.22
2019-04-25T11:24:06.701Z,25.25
2019-04-25T11:26:38.687Z,25.41
2019-04-25T11:29:10.680Z,25.53
2019-04-25T11:31:47.337Z,25.51
2019-04-25T11:34:20.613Z,25.41
2019-04-25T11:36:52.607Z,25.43
2019-04-25T11:39:45.063Z,25.22
2019-04-25T11:42:18.051Z,25.21
2019-04-25T11:44:50.046Z,25.20
2019-04-25T11:47:24.191Z,25.33
2019-04-25T11:49:56.289Z,25.56
2019-04-25T11:52:30.232Z,25.28
2019-04-25T11:55:04.078Z,25.20
2019-04-25T11:57:36.189Z,25.37
2019-04-25T12:00:21.348Z,25.58
2019-04-25T12:02:43.897Z,25.52
2019-04-25T12:05:16.070Z,25.55
2019-04-25T12:07:48.024Z,25.54
2019-04-25T12:10:20.746Z,25.65
2019-04-25T12:12:53.714Z,25.65
2019-04-25T12:15:26.132Z,25.80
2019-04-25T12:17:58.070Z,25.71
2019-04-25T12:20:30.055Z,25.89
2019-04-25T12:23:08.431Z,25.99
2019-04-25T12:25:35.911Z,26.02
2019-04-25T12:28:07.902Z,25.96
2019-04-25T12:30:40.512Z,25.76
2019-04-25T12:33:20.752Z,25.94
2019-04-25T12:35:47.821Z,26.03
2019-04-25T12:38:20.435Z,25.84
2019-04-25T12:40:54.083Z,25.83
2019-04-25T12:43:28.411Z,25.94
2019-04-25T12:46:26.064Z,25.66
2019-04-25T12:48:58.051Z,25.76
2019-04-25T12:51:30.125Z,25.68
2019-04-25T12:54:03.874Z,25.71
2019-04-25T12:56:36.017Z,25.86
2019-04-25T12:59:08.010Z,25.97
2019-04-25T13:01:40.005Z,25.87
2019-04-25T13:04:11.980Z,25.71
2019-04-25T13:06:43.969Z,25.98
2019-04-25T13:09:15.945Z,25.98
2019-04-25T13:11:47.947Z,25.87
2019-04-25T13:14:19.887Z,25.93
2019-04-25T13:16:51.901Z,26.05
2019-04-25T13:19:26.337Z,26.02
2019-04-25T13:21:57.980Z,26.04
2019-04-25T13:24:29.984Z,26.11
2019-04-25T13:27:07.931Z,26.17
2019-04-25T13:30:03.250Z,26.22
2019-04-25T13:32:47.576Z,26.21
2019-04-25T13:35:29.870Z,26.24
2019-04-25T13:38:01.909Z,26.29
2019-04-25T13:40:33.942Z,26.31
2019-04-25T13:43:06.185Z,26.29
2019-04-25T13:45:38.176Z,26.19
2019-04-25T13:48:10.174Z,26.33
2019-04-25T13:50:42.137Z,26.16
2019-04-25T13:53:14.120Z,26.22
2019-04-25T13:55:46.121Z,26.24
2019-04-25T13:58:18.129Z,26.26
2019-04-25T14:00:50.094Z,26.30
2019-04-25T14:03:22.943Z,26.23
2019-04-25T14:05:55.142Z,26.21
2019-04-25T14:08:27.132Z,26.32
2019-04-25T14:10:59.086Z,26.23
2019-04-25T14:13:31.071Z,26.29
2019-04-25T14:16:18.369Z,26.29
2019-04-25T14:19:09.942Z,26.44
2019-04-25T14:21:43.423Z,26.60
2019-04-25T14:24:20.660Z,26.48
2019-04-25T14:26:49.448Z,26.54
2019-04-25T14:29:22.352Z,26.59
2019-04-25T14:31:54.330Z,26.62
2019-04-25T14:34:26.579Z,26.57
2019-04-25T14:36:58.606Z,26.73
2019-04-25T14:39:30.586Z,26.68
2019-04-25T14:42:02.581Z,26.47
2019-04-25T14:44:34.578Z,26.51
2019-04-25T14:47:06.641Z,26.47
2019-04-25T14:49:38.643Z,26.36
2019-04-25T14:52:10.616Z,26.29
2019-04-25T14:54:57.571Z,26.34
2019-04-25T14:57:30.423Z,26.18
2019-04-25T15:00:04.753Z,26.28
2019-04-25T15:02:36.925Z,26.15
2019-04-25T15:05:08.929Z,26.21
2019-04-25T15:07:40.892Z,26.14
2019-04-25T15:10:12.889Z,26.03
2019-04-25T15:12:44.881Z,26.16
2019-04-25T15:15:16.885Z,26.16
2019-04-25T15:17:48.825Z,26.22
2019-04-25T15:20:20.905Z,26.15
2019-04-25T15:22:52.922Z,26.08
2019-04-25T15:25:25.124Z,25.96
2019-04-25T15:27:58.226Z,25.97
2019-04-25T15:30:31.945Z,25.89
2019-04-25T15:33:04.201Z,25.86
2019-04-25T15:35:42.550Z,25.91
2019-04-25T15:38:20.136Z,25.95
2019-04-25T15:41:02.463Z,25.92
2019-04-25T15:43:42.329Z,25.98
2019-04-25T15:46:20.939Z,25.89
2019-04-25T15:48:52.946Z,25.87
2019-04-25T15:51:25.556Z,25.83
2019-04-25T15:53:57.605Z,25.90
2019-04-25T15:56:30.275Z,25.96
2019-04-25T15:59:02.447Z,25.89
2019-04-25T16:01:34.654Z,25.94
2019-04-25T16:04:06.645Z,25.83
2019-04-25T16:06:38.711Z,25.88
2019-04-25T16:09:10.700Z,25.83
2019-04-25T16:11:42.719Z,25.87
2019-04-25T16:14:14.715Z,25.86
2019-04-25T16:16:46.733Z,25.67
2019-04-25T16:19:18.716Z,25.76
2019-04-25T16:21:50.706Z,25.68
2019-04-25T16:24:22.667Z,25.54
2019-04-25T16:26:54.696Z,25.53
2019-04-25T16:29:27.648Z,25.48
2019-04-25T16:32:01.815Z,25.43
2019-04-25T16:34:34.234Z,25.37
2019-04-25T16:37:06.282Z,25.21
2019-04-25T16:39:38.576Z,25.24
2019-04-25T16:42:10.687Z,25.21
2019-04-25T16:44:42.740Z,25.22
2019-04-25T16:47:16.641Z,25.04
2019-04-25T16:49:48.611Z,24.95
2019-04-25T16:52:21.041Z,24.96
2019-04-25T16:54:53.011Z,24.96
2019-04-25T16:57:25.000Z,24.97
2019-04-25T16:59:56.981Z,25.00
2019-04-25T17:02:36.556Z,24.83
2019-04-25T17:05:08.088Z,24.76
2019-04-25T17:07:40.971Z,24.80
2019-04-25T17:10:14.477Z,24.82
2019-04-25T17:12:46.470Z,24.79
2019-04-25T17:15:43.891Z,24.71
2019-04-25T17:18:19.920Z,24.58
2019-04-25T17:21:00.030Z,24.64
2019-04-25T17:23:32.367Z,24.65
2019-04-25T17:26:04.527Z,24.52
2019-04-25T17:28:39.270Z,24.62
2019-04-25T17:31:29.760Z,24.49
2019-04-25T17:34:24.123Z,24.42
2019-04-25T17:37:13.649Z,24.40
2019-04-25T17:39:49.136Z,24.43
2019-04-25T17:42:21.186Z,24.46
2019-04-25T17:44:53.216Z,24.17
2019-04-25T17:47:25.243Z,24.02
2019-04-25T17:49:57.231Z,23.99
2019-04-25T17:52:29.289Z,24.10
2019-04-25T17:55:01.322Z,24.08
2019-04-25T17:57:33.337Z,24.07
2019-04-25T18:00:08.184Z,23.98
2019-04-25T18:02:40.155Z,24.03
2019-04-25T18:05:12.155Z,23.98
2019-04-25T18:07:44.573Z,23.78
2019-04-25T18:10:16.826Z,23.75
2019-04-25T18:12:48.826Z,23.73
2019-04-25T18:15:28.046Z,23.53
2019-04-25T18:18:01.966Z,23.31
2019-04-25T18:20:36.731Z,23.19
2019-04-25T18:23:17.145Z,23.04
2019-04-25T18:26:08.754Z,22.91
2019-04-25T18:28:45.739Z,22.80
2019-04-25T18:31:17.881Z,22.69
2019-04-25T18:33:52.874Z,22.56
2019-04-25T18:36:43.315Z,22.42
2019-04-25T18:39:24.137Z,22.24
2019-04-25T18:42:27.758Z,22.10
2019-04-25T18:44:59.774Z,21.96
2019-04-25T18:47:31.793Z,21.78
2019-04-25T18:50:04.216Z,21.66
2019-04-25T18:53:07.881Z,21.55
2019-04-25T18:55:49.714Z,21.40
2019-04-25T18:58:39.898Z,21.20
2019-04-25T19:01:19.785Z,21.06
2019-04-25T19:07:01.702Z,20.74
2019-04-25T19:09:33.722Z,20.58
2019-04-25T19:12:05.742Z,20.46
2019-04-25T19:14:39.835Z,20.32
2019-04-25T19:17:11.891Z,20.37
2019-04-25T19:19:44.062Z,20.40
2019-04-25T19:22:16.114Z,20.39
2019-04-25T19:24:48.697Z,20.32
2019-04-25T19:27:23.814Z,20.16
2019-04-25T19:29:54.807Z,19.99
2019-04-25T19:32:27.516Z,19.92
2019-04-25T19:34:59.566Z,19.77
2019-04-25T19:37:31.829Z,19.71
2019-04-25T19:40:33.273Z,19.63
2019-04-25T19:43:18.976Z,19.59
2019-04-25T19:45:51.238Z,19.64
2019-04-25T19:48:23.288Z,19.48
2019-04-25T19:50:55.424Z,19.40
2019-04-25T19:53:27.428Z,19.33
2019-04-25T19:55:59.533Z,19.07
2019-04-25T19:58:31.562Z,18.85
2019-04-25T20:01:03.737Z,18.85
2019-04-25T20:03:52.038Z,18.68
2019-04-25T20:06:37.911Z,18.56
2019-04-25T20:09:35.340Z,18.38
2019-04-25T20:12:07.544Z,18.18
2019-04-25T20:14:39.559Z,18.02
2019-04-25T20:17:11.705Z,18.15
2019-04-25T20:19:44.895Z,18.04
2019-04-25T20:22:17.694Z,17.93
2019-04-25T20:24:50.392Z,17.82
2019-04-25T20:27:22.417Z,17.58
2019-04-25T20:29:54.620Z,17.41
2019-04-25T20:32:27.015Z,17.18
2019-04-25T20:34:59.074Z,17.01
2019-04-25T20:37:31.103Z,16.88
2019-04-25T20:40:04.041Z,16.86
2019-04-25T20:42:36.050Z,16.80
2019-04-25T20:45:08.216Z,16.90
2019-04-25T20:47:40.271Z,16.87
2019-04-25T20:50:12.433Z,16.72
2019-04-25T20:52:44.468Z,16.70
2019-04-25T20:55:16.597Z,16.67
2019-04-25T20:57:49.417Z,16.56
2019-04-25T21:00:55.904Z,16.40
2019-04-25T21:03:28.227Z,16.31
2019-04-25T21:06:13.133Z,16.25
2019-04-25T21:08:45.155Z,16.14
2019-04-25T21:11:17.437Z,16.09
2019-04-25T21:14:07.589Z,16.12
2019-04-25T21:16:58.883Z,15.96
2019-04-25T21:19:33.191Z,15.78
2019-04-25T21:22:05.216Z,15.66
2019-04-25T21:24:37.497Z,15.54
2019-04-25T21:27:09.504Z,15.50
2019-04-25T21:29:41.584Z,15.50
2019-04-25T21:32:15.410Z,15.45
2019-04-25T21:34:47.468Z,15.27
2019-04-25T21:37:21.049Z,15.22
2019-04-25T21:40:02.881Z,15.14
2019-04-25T21:42:45.122Z,15.04
2019-04-25T21:45:17.407Z,14.99
2019-04-25T21:47:49.677Z,14.90
2019-04-25T21:50:22.097Z,14.83
2019-04-25T21:52:55.387Z,14.82
2019-04-25T21:55:28.933Z,14.78
2019-04-25T21:58:01.155Z,14.73
2019-04-25T22:00:52.309Z,14.68
2019-04-25T22:03:25.089Z,14.66
2019-04-25T22:05:57.268Z,14.64
2019-04-25T22:08:29.233Z,14.53
2019-04-25T22:11:01.310Z,14.52
2019-04-25T22:13:33.436Z,14.42
2019-04-25T22:16:06.847Z,14.39
2019-04-25T22:18:39.029Z,14.47
2019-04-25T22:21:11.411Z,14.42
2019-04-25T22:23:43.707Z,14.28
2019-04-25T22:26:15.696Z,14.28
2019-04-25T22:28:48.074Z,14.18
2019-04-25T22:31:25.490Z,14.17
2019-04-25T22:34:03.817Z,14.22
2019-04-25T22:36:36.302Z,14.12
2019-04-25T22:39:09.426Z,13.95
2019-04-25T22:41:46.599Z,13.95
2019-04-25T22:44:19.854Z,13.93
2019-04-25T22:46:52.310Z,13.88
2019-04-25T22:49:24.689Z,13.79
2019-04-25T22:51:56.691Z,13.68
2019-04-25T22:54:29.488Z,13.65
2019-04-25T22:57:02.512Z,13.53
2019-04-25T22:59:35.110Z,13.49
2019-04-25T23:02:31.973Z,13.45
2019-04-25T23:05:20.445Z,13.40
2019-04-25T23:07:52.536Z,13.40
2019-04-25T23:10:24.798Z,13.33
2019-04-25T23:12:56.795Z,13.24
2019-04-25T23:15:28.770Z,13.21
2019-04-25T23:18:01.120Z,13.19
2019-04-25T23:20:33.096Z,13.14
2019-04-25T23:23:07.658Z,13.09
2019-04-25T23:25:58.129Z,12.99
2019-04-25T23:28:33.950Z,12.99
2019-04-25T23:31:19.372Z,13.05
2019-04-25T23:33:51.346Z,13.08
2019-04-25T23:36:23.624Z,13.08
2019-04-25T23:38:55.613Z,12.88
2019-04-25T23:41:27.870Z,12.88
2019-04-25T23:44:00.005Z,12.82
2019-04-25T23:46:32.288Z,12.82
2019-04-25T23:49:04.784Z,12.71
2019-04-25T23:51:36.738Z,12.72
2019-04-25T23:54:08.963Z,12.72
2019-04-25T23:56:41.010Z,12.71
2019-04-25T23:59:13.547Z,12.54
